Time;durP1;ratioP1;P1;durP2;ratioP2;P2;SDS_P1;SDS_P2;PMS_P1;PMS_P2;Temp;Humidity;BMP_temperature;BMP_pressure;BME280_temperature;BME280_humidity;BME280_pressure;Samples;Min_cycle;Max_cycle;Signal;HPM_P1;HPM_P2
2020/12/08 00:01:29;;;;;;;2.13;0.40;;;24.30;43.60;;;;;;5106325;28;20032;-57
2020/12/08 00:03:56;;;;;;;1.17;0.52;;;24.30;43.80;;;;;;5112024;27;20053;-60
2020/12/08 00:06:26;;;;;;;4.28;0.68;;;24.30;44.10;;;;;;5109372;28;20028;-58
2020/12/08 00:08:54;;;;;;;1.73;0.60;;;24.30;43.20;;;;;;5108408;28;20019;-59
2020/12/08 00:11:21;;;;;;;1.98;0.52;;;24.30;43.80;;;;;;5105489;28;20493;-56
2020/12/08 00:13:49;;;;;;;9.48;1.48;;;24.40;43.50;;;;;;5109401;28;20538;-54
2020/12/08 00:16:16;;;;;;;1.48;0.60;;;24.40;43.80;;;;;;5107419;28;20404;-59
2020/12/08 00:18:43;;;;;;;1.42;0.70;;;24.40;44.40;;;;;;5107984;28;20497;-61
2020/12/08 00:21:11;;;;;;;4.30;0.63;;;24.40;44.30;;;;;;5105412;28;20039;-62
2020/12/08 00:23:38;;;;;;;1.90;0.40;;;24.50;44.20;;;;;;5108556;28;20115;-57
2020/12/08 00:26:05;;;;;;;1.83;0.90;;;24.50;43.30;;;;;;5108656;28;20622;-63
2020/12/08 00:28:35;;;;;;;2.92;1.00;;;24.50;43.90;;;;;;5108362;28;20024;-57
2020/12/08 00:31:02;;;;;;;1.75;0.80;;;24.60;44.00;;;;;;5104891;28;20062;-62
2020/12/08 00:33:29;;;;;;;4.22;0.88;;;24.60;43.50;;;;;;5107467;28;20039;-62
2020/12/08 00:35:58;;;;;;;2.15;0.80;;;24.70;43.60;;;;;;5108910;28;20478;-62
2020/12/08 00:38:27;;;;;;;1.13;0.55;;;24.70;44.10;;;;;;5089762;28;20028;-58
2020/12/08 00:40:54;;;;;;;3.35;0.60;;;24.70;44.30;;;;;;5104831;28;20023;-62
2020/12/08 00:43:21;;;;;;;1.38;0.60;;;24.70;44.20;;;;;;5086983;28;20036;-62
2020/12/08 00:45:49;;;;;;;3.72;0.50;;;24.70;44.10;;;;;;5108207;28;20567;-62
2020/12/08 00:48:18;;;;;;;3.28;1.15;;;24.80;44.80;;;;;;5108303;28;20443;-58
2020/12/08 00:50:45;;;;;;;1.15;0.60;;;24.70;43.70;;;;;;5103770;28;20030;-62
2020/12/08 00:53:13;;;;;;;1.10;0.38;;;24.80;43.70;;;;;;5108200;28;20544;-58
2020/12/08 00:55:40;;;;;;;4.75;0.82;;;24.90;44.00;;;;;;5108644;28;20019;-59
2020/12/08 00:58:07;;;;;;;0.93;0.55;;;24.90;43.70;;;;;;5106664;28;20035;-61
2020/12/08 01:00:35;;;;;;;1.48;0.80;;;24.90;44.20;;;;;;5104654;28;20097;-57
2020/12/08 01:03:02;;;;;;;4.72;0.63;;;24.90;42.50;;;;;;5110163;28;20024;-62
2020/12/08 01:05:30;;;;;;;1.05;0.75;;;25.00;42.80;;;;;;5112430;28;20110;-62
2020/12/08 01:07:57;;;;;;;1.30;0.60;;;25.10;43.40;;;;;;5111799;28;20065;-62
2020/12/08 01:10:24;;;;;;;2.38;0.52;;;25.10;43.50;;;;;;5109101;28;20073;-63
2020/12/08 01:12:52;;;;;;;1.58;0.70;;;25.10;42.70;;;;;;5113338;28;20024;-58
2020/12/08 01:15:19;;;;;;;1.90;0.80;;;25.20;43.90;;;;;;5112153;28;20028;-63
2020/12/08 01:17:47;;;;;;;1.50;0.70;;;25.20;43.90;;;;;;5113047;28;20402;-61
2020/12/08 01:20:14;;;;;;;0.85;0.60;;;25.30;43.90;;;;;;5109123;28;20126;-62
2020/12/08 01:22:41;;;;;;;1.15;0.50;;;25.30;43.50;;;;;;5094604;28;20125;-63
2020/12/08 01:25:09;;;;;;;1.80;0.77;;;25.30;42.80;;;;;;5112104;28;20035;-60
2020/12/08 01:27:36;;;;;;;4.93;0.90;;;25.40;42.90;;;;;;5112678;28;20016;-58
2020/12/08 01:30:05;;;;;;;1.02;0.50;;;25.40;43.00;;;;;;5106632;28;20019;-59
2020/12/08 01:32:33;;;;;;;17.75;2.47;;;25.40;43.40;;;;;;5111606;28;20470;-58
2020/12/08 01:35:00;;;;;;;6.95;0.95;;;25.50;42.90;;;;;;5112177;28;20111;-58
2020/12/08 01:37:27;;;;;;;10.57;1.58;;;25.50;43.30;;;;;;5111858;28;20028;-61
2020/12/08 01:39:55;;;;;;;4.82;0.93;;;25.50;42.00;;;;;;5108040;28;20035;-61
2020/12/08 01:42:22;;;;;;;2.50;0.50;;;25.50;42.00;;;;;;5111836;28;20103;-60
2020/12/08 01:44:50;;;;;;;2.75;0.57;;;25.60;43.00;;;;;;5112090;28;20040;-61
2020/12/08 01:47:18;;;;;;;4.82;0.82;;;25.60;42.80;;;;;;5111811;28;20077;-57
2020/12/08 01:49:48;;;;;;;2.65;1.10;;;25.60;42.00;;;;;;5089188;28;20031;-63
2020/12/08 01:52:16;;;;;;;3.08;0.75;;;25.60;41.70;;;;;;5112637;28;20027;-60
2020/12/08 01:54:46;;;;;;;10.48;0.90;;;25.70;42.10;;;;;;5093942;28;20046;-59
2020/12/08 01:57:17;;;;;;;2.40;0.77;;;25.70;42.40;;;;;;5111277;28;20027;-54
2020/12/08 01:59:44;;;;;;;3.35;0.80;;;25.70;43.20;;;;;;5107941;28;20414;-54
2020/12/08 02:02:12;;;;;;;6.03;1.20;;;25.70;42.70;;;;;;5113749;27;20032;-64
2020/12/08 02:04:40;;;;;;;1.88;0.70;;;25.70;43.20;;;;;;5092959;28;20111;-64
2020/12/08 02:07:07;;;;;;;5.45;0.90;;;25.80;43.40;;;;;;5111163;28;20020;-62
2020/12/08 02:09:38;;;;;;;1.67;0.60;;;25.80;43.70;;;;;;5089469;28;20037;-57
2020/12/08 02:12:06;;;;;;;3.53;1.00;;;25.70;42.80;;;;;;5110565;28;20023;-59
2020/12/08 02:14:33;;;;;;;3.60;0.63;;;25.70;42.70;;;;;;5092337;28;20277;-64
2020/12/08 02:17:01;;;;;;;5.88;0.93;;;25.80;43.50;;;;;;5110917;28;20043;-62
2020/12/08 02:19:30;;;;;;;1.95;0.60;;;25.80;43.40;;;;;;5107317;28;20312;-59
2020/12/08 02:21:57;;;;;;;2.67;0.90;;;25.80;44.00;;;;;;5110988;28;20108;-59
2020/12/08 02:24:26;;;;;;;3.60;0.80;;;25.80;43.80;;;;;;5107938;28;20032;-60
2020/12/08 02:27:09;;;;;;;2.58;0.75;;;25.90;44.00;;;;;;5110832;28;20031;-55
2020/12/08 02:29:36;;;;;;;2.15;0.80;;;25.90;44.00;;;;;;5105937;28;20041;-62
2020/12/08 02:32:03;;;;;;;2.47;0.80;;;25.90;44.60;;;;;;5093255;28;20081;-62
2020/12/08 02:34:31;;;;;;;2.88;0.75;;;25.90;44.00;;;;;;5111326;28;20443;-62
2020/12/08 02:36:59;;;;;;;6.72;0.82;;;26.00;43.10;;;;;;5111612;28;20015;-62
2020/12/08 02:39:27;;;;;;;3.85;0.77;;;26.00;43.90;;;;;;5110756;28;20024;-56
2020/12/08 02:41:55;;;;;;;3.92;1.02;;;26.00;43.40;;;;;;5110975;28;20020;-61
2020/12/08 02:44:22;;;;;;;1.65;0.63;;;26.00;44.00;;;;;;5110526;28;20055;-63
2020/12/08 02:46:51;;;;;;;4.53;0.82;;;26.00;44.50;;;;;;5109616;28;20114;-63
2020/12/08 02:49:19;;;;;;;2.25;0.70;;;26.00;44.30;;;;;;5108877;28;20107;-61
2020/12/08 02:51:46;;;;;;;2.47;0.85;;;26.00;44.70;;;;;;5091185;28;20204;-51
2020/12/08 02:54:13;;;;;;;2.30;0.80;;;26.00;44.40;;;;;;5093933;28;20024;-61
2020/12/08 02:56:41;;;;;;;1.45;0.60;;;26.00;44.50;;;;;;5113703;28;20055;-58
2020/12/08 02:59:08;;;;;;;1.95;0.73;;;26.00;43.80;;;;;;5112227;28;20028;-59
2020/12/08 03:01:35;;;;;;;3.85;1.00;;;26.00;43.70;;;;;;5113705;28;20023;-59
2020/12/08 03:04:03;;;;;;;5.68;1.20;;;26.00;44.00;;;;;;5113542;28;20038;-59
2020/12/08 03:06:30;;;;;;;2.35;0.70;;;26.00;44.40;;;;;;5113285;28;20047;-58
2020/12/08 03:08:57;;;;;;;1.77;0.60;;;26.00;44.10;;;;;;5112893;28;20028;-58
2020/12/08 03:11:34;;;;;;;5.70;0.90;;;26.00;44.00;;;;;;5112442;28;20019;-57
2020/12/08 03:14:01;;;;;;;3.85;0.90;;;26.00;43.60;;;;;;5112778;28;20382;-58
2020/12/08 03:16:28;;;;;;;2.17;0.40;;;26.00;44.00;;;;;;5113034;28;20019;-61
2020/12/08 03:18:55;;;;;;;3.58;0.70;;;26.00;44.50;;;;;;5093933;28;20375;-60
2020/12/08 03:21:23;;;;;;;1.15;0.55;;;26.00;44.50;;;;;;5113405;28;20028;-60
2020/12/08 03:23:50;;;;;;;1.25;0.70;;;26.00;44.30;;;;;;5112609;28;20486;-61
2020/12/08 03:26:23;;;;;;;3.50;0.80;;;26.00;44.60;;;;;;5112144;28;20122;-61
2020/12/08 03:28:51;;;;;;;1.15;0.60;;;26.00;44.60;;;;;;5113208;28;20022;-61
2020/12/08 03:31:18;;;;;;;3.30;0.65;;;26.00;44.50;;;;;;5112498;28;20076;-58
2020/12/08 03:33:46;;;;;;;0.30;0.30;;;26.00;44.30;;;;;;5113392;28;20468;-61
2020/12/08 03:36:20;;;;;;;2.25;1.05;;;26.00;44.50;;;;;;5112845;28;20449;-59
2020/12/08 03:38:49;;;;;;;4.60;0.93;;;26.00;44.50;;;;;;5112172;28;20035;-57
2020/12/08 03:41:23;;;;;;;1.75;0.73;;;26.00;44.10;;;;;;5112898;28;20074;-61
2020/12/08 03:43:54;;;;;;;0.88;0.50;;;26.00;44.00;;;;;;5112440;28;20446;-59
2020/12/08 03:46:22;;;;;;;2.72;0.98;;;26.00;45.30;;;;;;5099699;27;20074;-49
2020/12/08 03:48:51;;;;;;;3.55;0.73;;;26.00;44.90;;;;;;5108507;28;20031;-58
2020/12/08 03:51:20;;;;;;;1.77;0.77;;;26.00;45.20;;;;;;5108441;27;20396;-59
2020/12/08 03:53:48;;;;;;;2.70;0.50;;;26.00;45.30;;;;;;5108908;28;20508;-62
2020/12/08 03:56:18;;;;;;;21.15;1.02;;;26.00;45.50;;;;;;5089305;28;20032;-63
2020/12/08 03:58:46;;;;;;;2.10;0.70;;;26.00;45.40;;;;;;5108755;28;20028;-63
2020/12/08 04:01:16;;;;;;;1.00;0.47;;;26.00;45.40;;;;;;5105758;28;20031;-65
2020/12/08 04:03:45;;;;;;;4.53;1.02;;;25.90;45.30;;;;;;5108533;28;20027;-64
2020/12/08 04:06:13;;;;;;;3.25;0.90;;;26.00;45.40;;;;;;5107791;28;20027;-59
2020/12/08 04:08:44;;;;;;;4.50;0.70;;;26.00;45.50;;;;;;5108695;28;20024;-58
2020/12/08 04:11:12;;;;;;;1.63;0.65;;;26.00;45.70;;;;;;5105065;28;20040;-60
2020/12/08 04:13:41;;;;;;;1.67;0.73;;;25.90;45.60;;;;;;5109102;28;20071;-65
2020/12/08 04:16:13;;;;;;;1.75;0.80;;;26.00;46.00;;;;;;5108663;28;20027;-67
2020/12/08 04:18:41;;;;;;;0.90;0.47;;;26.00;45.60;;;;;;5106641;28;20043;-54
2020/12/08 04:21:09;;;;;;;2.53;0.77;;;26.00;45.80;;;;;;5105590;28;20024;-63
2020/12/08 04:23:36;;;;;;;3.45;0.70;;;26.00;45.00;;;;;;5108351;28;20149;-61
2020/12/08 04:26:09;;;;;;;2.08;0.60;;;26.00;45.70;;;;;;5108713;28;20020;-61
2020/12/08 04:28:37;;;;;;;1.75;0.80;;;26.00;45.80;;;;;;5106248;28;20446;-61
2020/12/08 04:31:04;;;;;;;3.97;1.00;;;26.00;45.50;;;;;;5105590;28;20035;-61
2020/12/08 04:33:31;;;;;;;1.50;0.68;;;26.00;45.80;;;;;;5090776;28;20023;-61
2020/12/08 04:35:59;;;;;;;0.85;0.50;;;26.00;45.60;;;;;;5108621;28;20028;-61
2020/12/08 04:38:26;;;;;;;1.88;0.90;;;26.00;45.80;;;;;;5108401;28;20046;-59
2020/12/08 04:40:53;;;;;;;1.33;0.47;;;26.10;45.60;;;;;;5105371;28;20027;-63
2020/12/08 04:43:21;;;;;;;2.75;0.80;;;26.10;45.70;;;;;;5107804;28;20095;-63
2020/12/08 04:45:49;;;;;;;3.92;0.70;;;26.10;45.30;;;;;;5109260;28;20473;-57
2020/12/08 04:48:18;;;;;;;3.45;0.65;;;26.10;45.60;;;;;;5108917;28;20032;-63
2020/12/08 04:50:46;;;;;;;1.48;0.60;;;26.10;45.60;;;;;;5105798;28;20095;-59
2020/12/08 04:53:14;;;;;;;2.70;0.95;;;26.10;45.60;;;;;;5109233;28;20080;-58
2020/12/08 04:55:41;;;;;;;1.60;0.90;;;26.10;45.70;;;;;;5107716;28;20103;-65
2020/12/08 04:58:12;;;;;;;3.65;0.98;;;26.10;45.00;;;;;;5109136;28;20119;-63
2020/12/08 05:00:49;;;;;;;4.47;1.00;;;26.10;44.60;;;;;;5073836;28;20043;-54
2020/12/08 05:03:26;;;;;;;5.50;1.50;;;25.70;45.00;;;;;;5090824;28;20020;-58
2020/12/08 05:05:54;;;;;;;11.70;1.17;;;25.10;42.00;;;;;;5091290;28;20036;-59
2020/12/08 05:08:22;;;;;;;8.20;1.30;;;24.40;45.50;;;;;;5091450;28;20024;-55
2020/12/08 05:10:49;;;;;;;6.10;1.90;;;24.20;46.10;;;;;;5091596;28;20027;-58
2020/12/08 05:13:27;;;;;;;4.13;0.95;;;24.30;45.30;;;;;;5091697;28;20024;-56
2020/12/08 05:16:08;;;;;;;5.53;1.00;;;24.70;45.40;;;;;;5091485;28;20024;-57
2020/12/08 05:18:36;;;;;;;6.15;1.38;;;25.00;45.10;;;;;;5091172;28;20123;-58
2020/12/08 05:21:10;;;;;;;5.07;1.00;;;24.40;43.30;;;;;;5091246;28;20052;-57
2020/12/08 05:23:42;;;;;;;4.00;0.80;;;24.90;46.50;;;;;;5091137;28;20027;-60
2020/12/08 05:26:10;;;;;;;5.60;0.98;;;25.10;46.70;;;;;;5090434;28;20044;-58
2020/12/08 05:28:39;;;;;;;17.70;1.92;;;25.40;46.00;;;;;;5091147;28;20056;-58
2020/12/08 05:31:07;;;;;;;5.30;1.27;;;24.80;42.10;;;;;;5072953;28;20024;-58
2020/12/08 05:33:37;;;;;;;11.18;2.38;;;24.90;44.50;;;;;;5091065;28;20095;-59
2020/12/08 05:36:04;;;;;;;9.27;1.20;;;24.10;43.40;;;;;;5091272;28;20043;-57
2020/12/08 05:38:40;;;;;;;4.47;1.20;;;24.10;45.10;;;;;;5090924;28;20479;-58
2020/12/08 05:41:08;;;;;;;4.32;1.35;;;24.50;45.50;;;;;;5072741;28;20020;-55
2020/12/08 05:43:38;;;;;;;2.90;1.23;;;24.80;46.70;;;;;;5091294;28;20096;-62
2020/12/08 05:46:07;;;;;;;9.10;1.08;;;24.70;47.50;;;;;;5090932;28;20028;-63
2020/12/08 05:48:36;;;;;;;3.15;1.20;;;24.90;46.10;;;;;;5091024;28;20065;-63
2020/12/08 05:51:05;;;;;;;5.25;1.40;;;25.20;45.80;;;;;;5074985;28;20525;-63
2020/12/08 05:53:33;;;;;;;6.65;1.30;;;25.40;45.80;;;;;;5076789;28;20070;-64
2020/12/08 05:56:08;;;;;;;7.57;1.30;;;25.40;45.70;;;;;;5093973;28;20331;-63
2020/12/08 05:58:38;;;;;;;7.30;1.30;;;25.50;45.80;;;;;;5094933;28;20024;-61
2020/12/08 06:01:07;;;;;;;5.05;1.25;;;25.50;45.80;;;;;;5094529;28;20072;-55
2020/12/08 06:03:38;;;;;;;6.70;1.50;;;25.50;47.00;;;;;;5094474;28;20039;-61
2020/12/08 06:06:07;;;;;;;4.35;1.35;;;25.50;46.40;;;;;;5075912;28;20165;-63
2020/12/08 06:08:45;;;;;;;4.00;1.17;;;25.40;45.80;;;;;;5110017;28;20024;-59
2020/12/08 06:11:14;;;;;;;3.92;1.02;;;25.40;45.50;;;;;;5093824;28;20039;-60
2020/12/08 06:13:49;;;;;;;3.05;1.00;;;25.50;45.90;;;;;;5094201;28;20382;-60
2020/12/08 06:16:20;;;;;;;2.65;1.00;;;25.50;45.70;;;;;;5093851;28;20530;-61
2020/12/08 06:18:50;;;;;;;2.25;1.17;;;25.50;45.40;;;;;;5091839;27;20040;-60
2020/12/08 06:21:28;;;;;;;5.70;1.40;;;25.50;45.30;;;;;;5089274;28;20035;-59
2020/12/08 06:23:58;;;;;;;2.83;1.38;;;25.50;45.20;;;;;;5092843;28;20634;-63
2020/12/08 06:26:34;;;;;;;3.05;1.40;;;25.50;45.50;;;;;;5093306;28;20028;-62
2020/12/08 06:29:12;;;;;;;6.10;1.40;;;25.50;46.50;;;;;;5111158;28;20084;-63
2020/12/08 06:31:52;;;;;;;6.75;1.65;;;25.50;47.00;;;;;;5107178;28;20119;-63
2020/12/08 06:34:31;;;;;;;4.65;1.38;;;25.50;46.90;;;;;;5109380;28;20027;-64
2020/12/08 06:37:11;;;;;;;4.70;1.33;;;25.50;47.20;;;;;;5109935;28;20027;-67
2020/12/08 06:39:38;;;;;;;5.07;1.05;;;25.50;47.00;;;;;;5110624;28;20023;-64
2020/12/08 06:42:15;;;;;;;6.22;2.00;;;25.50;47.10;;;;;;5108206;28;20076;-63
2020/12/08 06:44:43;;;;;;;6.13;1.05;;;25.50;47.00;;;;;;5110487;28;20513;-64
2020/12/08 06:47:10;;;;;;;3.33;1.00;;;25.50;47.10;;;;;;5109474;28;20150;-64
2020/12/08 06:49:42;;;;;;;4.70;1.40;;;25.50;47.20;;;;;;5110520;28;20051;-61
2020/12/08 06:52:10;;;;;;;3.22;1.30;;;25.40;47.20;;;;;;5106546;28;20024;-61
2020/12/08 06:54:37;;;;;;;3.92;1.20;;;25.40;47.40;;;;;;5110382;28;20023;-60
2020/12/08 06:57:10;;;;;;;7.47;1.42;;;25.40;47.20;;;;;;5108765;28;20024;-61
2020/12/08 06:59:38;;;;;;;3.13;1.20;;;25.40;48.00;;;;;;5092113;28;20016;-62
2020/12/08 07:02:05;;;;;;;1.60;0.80;;;25.40;47.50;;;;;;5104062;28;20031;-61
2020/12/08 07:04:33;;;;;;;3.83;1.33;;;25.30;47.40;;;;;;5110982;28;20024;-62
2020/12/08 07:07:00;;;;;;;4.60;1.45;;;25.40;47.70;;;;;;5091884;28;20370;-62
2020/12/08 07:09:35;;;;;;;5.75;1.30;;;25.30;47.80;;;;;;5110110;28;20031;-60
2020/12/08 07:12:04;;;;;;;2.78;1.10;;;25.30;47.40;;;;;;5108328;27;20110;-62
2020/12/08 07:14:31;;;;;;;3.25;1.52;;;25.30;47.60;;;;;;5109349;28;20053;-63
2020/12/08 07:16:59;;;;;;;3.65;1.35;;;25.30;48.00;;;;;;5109826;28;20046;-61
2020/12/08 07:19:29;;;;;;;5.18;1.40;;;25.30;47.70;;;;;;5109829;28;20209;-60
2020/12/08 07:22:00;;;;;;;4.90;1.70;;;25.30;47.60;;;;;;5106807;28;20024;-65
2020/12/08 07:24:30;;;;;;;3.40;1.10;;;25.30;47.50;;;;;;5109301;28;20032;-57
2020/12/08 07:27:01;;;;;;;4.20;1.48;;;25.20;47.40;;;;;;5110218;28;20023;-62
2020/12/08 07:29:29;;;;;;;2.43;0.97;;;25.20;47.50;;;;;;5109900;28;20413;-60
2020/12/08 07:31:56;;;;;;;5.55;1.30;;;25.20;47.20;;;;;;5086732;28;20042;-61
2020/12/08 07:34:23;;;;;;;4.85;1.50;;;25.20;47.10;;;;;;5091440;28;20024;-63
2020/12/08 07:36:51;;;;;;;6.25;1.50;;;25.10;47.50;;;;;;5110211;28;20350;-62
2020/12/08 07:39:20;;;;;;;3.88;1.30;;;25.10;47.40;;;;;;5108630;28;20077;-61
2020/12/08 07:41:48;;;;;;;4.53;1.33;;;25.10;47.70;;;;;;5106098;28;20482;-59
2020/12/08 07:44:18;;;;;;;4.55;1.23;;;25.10;47.70;;;;;;5109614;28;20032;-60
2020/12/08 07:46:52;;;;;;;5.55;1.00;;;25.10;47.70;;;;;;5107856;28;20066;-62
2020/12/08 07:49:19;;;;;;;5.22;1.65;;;25.10;47.70;;;;;;5109661;28;20031;-61
2020/12/08 07:51:50;;;;;;;3.90;1.42;;;25.00;47.70;;;;;;5087935;28;20106;-54
2020/12/08 07:54:19;;;;;;;6.45;1.48;;;25.00;47.50;;;;;;5109860;28;20091;-62
2020/12/08 07:56:47;;;;;;;3.60;1.15;;;25.00;47.60;;;;;;5107291;28;20058;-59
2020/12/08 07:59:14;;;;;;;3.15;1.00;;;24.90;47.60;;;;;;5109172;28;20118;-60
2020/12/08 08:01:45;;;;;;;3.30;1.13;;;24.90;47.70;;;;;;5106225;28;20028;-54
2020/12/08 08:04:18;;;;;;;1.98;1.17;;;24.90;47.60;;;;;;5108951;28;20304;-62
2020/12/08 08:06:46;;;;;;;5.32;1.60;;;24.90;47.50;;;;;;5109253;28;20054;-57
2020/12/08 08:09:13;;;;;;;5.47;1.20;;;24.90;47.80;;;;;;5110301;28;20036;-66
2020/12/08 08:11:41;;;;;;;7.78;1.63;;;24.90;47.80;;;;;;5105171;28;20441;-66
2020/12/08 08:14:08;;;;;;;5.15;1.80;;;24.80;47.90;;;;;;5108568;28;20454;-63
2020/12/08 08:16:36;;;;;;;7.50;2.42;;;24.90;47.90;;;;;;5110071;28;20355;-61
2020/12/08 08:19:04;;;;;;;4.28;1.40;;;24.80;47.90;;;;;;5104852;28;20055;-58
2020/12/08 08:21:32;;;;;;;3.80;1.30;;;24.80;47.80;;;;;;5105316;28;20453;-60
2020/12/08 08:24:00;;;;;;;2.63;1.25;;;24.80;48.70;;;;;;5109111;28;20035;-58
2020/12/08 08:26:28;;;;;;;2.58;1.25;;;24.80;48.20;;;;;;5108048;28;20346;-56
2020/12/08 08:28:56;;;;;;;3.53;1.35;;;24.80;48.10;;;;;;5106096;28;20027;-56
2020/12/08 08:31:23;;;;;;;3.17;1.13;;;24.80;48.40;;;;;;5107806;28;20561;-59
2020/12/08 08:33:51;;;;;;;4.07;1.25;;;24.70;47.80;;;;;;5092265;28;20024;-62
2020/12/08 08:36:18;;;;;;;3.38;1.58;;;24.70;48.00;;;;;;5110477;28;20036;-61
2020/12/08 08:38:46;;;;;;;3.75;1.45;;;24.70;47.90;;;;;;5110129;28;20042;-57
2020/12/08 08:41:13;;;;;;;3.15;1.52;;;24.70;48.00;;;;;;5108089;28;20156;-59
2020/12/08 08:43:41;;;;;;;7.82;1.52;;;24.70;48.00;;;;;;5102382;28;20069;-62
2020/12/08 08:46:09;;;;;;;3.30;1.33;;;24.60;48.60;;;;;;5107324;28;20064;-64
2020/12/08 08:48:37;;;;;;;2.90;1.40;;;24.60;48.80;;;;;;5106978;28;20024;-61
2020/12/08 08:51:05;;;;;;;3.33;1.48;;;24.60;49.20;;;;;;5109377;28;20416;-61
2020/12/08 08:53:32;;;;;;;5.03;1.77;;;24.60;49.40;;;;;;5110595;28;20019;-61
2020/12/08 08:55:59;;;;;;;3.92;1.45;;;24.60;49.40;;;;;;5110734;28;20067;-59
2020/12/08 08:58:27;;;;;;;3.65;1.45;;;24.60;49.60;;;;;;5109504;28;20023;-63
2020/12/08 09:00:57;;;;;;;7.50;1.50;;;24.60;49.90;;;;;;5110916;28;20099;-58
2020/12/08 09:03:24;;;;;;;4.30;1.73;;;24.60;49.70;;;;;;5110436;28;20375;-62
2020/12/08 09:05:53;;;;;;;3.25;1.40;;;24.60;49.70;;;;;;5110779;28;20550;-58
2020/12/08 09:08:24;;;;;;;3.13;1.20;;;24.60;49.50;;;;;;5111270;28;20501;-61
2020/12/08 09:10:54;;;;;;;4.15;1.33;;;24.50;49.40;;;;;;5111704;28;20047;-59
2020/12/08 09:13:22;;;;;;;4.97;1.40;;;24.50;49.60;;;;;;5111526;28;20107;-58
2020/12/08 09:15:49;;;;;;;7.85;1.42;;;24.50;49.70;;;;;;5111974;28;20135;-58
2020/12/08 09:18:17;;;;;;;3.90;1.17;;;24.50;49.60;;;;;;5111517;28;20047;-54
2020/12/08 09:20:44;;;;;;;4.28;1.40;;;24.40;49.80;;;;;;5111890;28;20020;-58
2020/12/08 09:23:12;;;;;;;4.32;1.50;;;24.40;50.20;;;;;;5112196;28;20111;-56
2020/12/08 09:25:39;;;;;;;4.32;1.42;;;24.40;50.00;;;;;;5114951;28;20140;-55
2020/12/08 09:28:07;;;;;;;4.78;1.27;;;24.40;50.50;;;;;;5115271;28;20023;-58
2020/12/08 09:30:34;;;;;;;3.35;1.38;;;24.40;50.70;;;;;;5115587;28;20035;-61
2020/12/08 09:33:02;;;;;;;6.75;1.67;;;24.30;50.80;;;;;;5115525;28;20024;-61
2020/12/08 09:35:29;;;;;;;3.65;1.20;;;24.30;50.80;;;;;;5115683;28;20092;-59
2020/12/08 09:37:57;;;;;;;8.25;1.83;;;24.30;50.80;;;;;;5097216;28;20019;-55
2020/12/08 09:40:24;;;;;;;12.23;2.08;;;24.20;51.40;;;;;;5102422;28;20635;-58
2020/12/08 09:42:52;;;;;;;6.90;1.70;;;24.20;52.30;;;;;;5107752;28;20101;-59
2020/12/08 09:45:19;;;;;;;11.18;1.98;;;24.20;52.50;;;;;;5111991;28;20039;-57
2020/12/08 09:47:47;;;;;;;4.80;2.08;;;24.20;52.20;;;;;;5111384;28;20092;-60
2020/12/08 09:50:14;;;;;;;10.45;2.90;;;24.20;52.20;;;;;;5112089;28;20028;-60
2020/12/08 09:52:42;;;;;;;10.98;3.20;;;24.20;51.90;;;;;;5090036;28;20051;-59
2020/12/08 09:55:09;;;;;;;14.82;3.95;;;24.20;51.90;;;;;;5111554;28;20394;-53
2020/12/08 09:57:37;;;;;;;11.93;4.40;;;24.20;51.90;;;;;;5112853;28;20027;-62
2020/12/08 10:00:09;;;;;;;12.50;4.07;;;24.20;51.40;;;;;;5108397;28;20024;-60
2020/12/08 10:02:36;;;;;;;19.50;4.95;;;24.20;51.60;;;;;;5106476;28;20477;-58
2020/12/08 10:05:04;;;;;;;17.45;4.20;;;24.20;51.50;;;;;;5094188;28;20047;-61
2020/12/08 10:07:32;;;;;;;15.82;3.75;;;24.20;51.40;;;;;;5112226;28;20043;-66
2020/12/08 10:09:59;;;;;;;18.27;4.97;;;24.20;51.40;;;;;;5112291;28;20114;-53
2020/12/08 10:12:27;;;;;;;17.23;5.38;;;24.10;51.30;;;;;;5106941;28;20054;-57
2020/12/08 10:14:54;;;;;;;16.02;4.85;;;24.10;51.40;;;;;;5112209;28;20393;-61
2020/12/08 10:17:22;;;;;;;14.52;4.25;;;24.10;51.20;;;;;;5111856;28;20196;-63
2020/12/08 10:19:49;;;;;;;15.23;4.65;;;24.10;51.20;;;;;;5111553;28;20059;-62
2020/12/08 10:22:17;;;;;;;15.25;4.53;;;24.10;51.30;;;;;;5108654;28;20028;-63
2020/12/08 10:24:44;;;;;;;19.73;4.85;;;24.10;51.30;;;;;;5093305;28;20501;-61
2020/12/08 10:27:12;;;;;;;14.77;4.72;;;24.10;51.40;;;;;;5112217;28;20028;-53
2020/12/08 10:29:40;;;;;;;22.42;5.70;;;24.10;51.30;;;;;;5111081;28;20047;-58
2020/12/08 10:32:07;;;;;;;14.73;4.28;;;24.00;51.30;;;;;;5108226;28;20027;-56
2020/12/08 10:34:35;;;;;;;15.05;4.88;;;24.10;51.40;;;;;;5093277;28;20057;-54
2020/12/08 10:37:02;;;;;;;17.48;5.13;;;24.00;51.30;;;;;;5110541;28;20076;-56
2020/12/08 10:39:30;;;;;;;16.85;5.70;;;24.00;51.30;;;;;;5110967;28;20035;-55
2020/12/08 10:42:01;;;;;;;18.10;5.85;;;24.00;51.30;;;;;;5105304;28;20582;-56
2020/12/08 10:44:28;;;;;;;17.52;4.80;;;24.00;51.30;;;;;;5110689;28;20378;-57
2020/12/08 10:46:56;;;;;;;13.23;4.15;;;24.00;51.20;;;;;;5111097;28;21538;-50
2020/12/08 10:49:24;;;;;;;14.77;4.95;;;24.00;51.10;;;;;;5110625;28;20039;-56
2020/12/08 10:51:52;;;;;;;17.00;4.75;;;23.90;51.20;;;;;;5088833;28;20120;-54
2020/12/08 10:54:21;;;;;;;13.50;4.32;;;23.90;51.20;;;;;;5110229;28;20618;-53
2020/12/08 10:56:54;;;;;;;14.55;4.47;;;23.90;51.10;;;;;;5111396;28;20519;-59
2020/12/08 10:59:21;;;;;;;14.02;5.30;;;23.90;50.90;;;;;;5109656;28;20489;-54
2020/12/08 11:01:49;;;;;;;9.50;4.07;;;23.90;51.00;;;;;;5107060;28;20113;-56
2020/12/08 11:04:16;;;;;;;15.05;4.13;;;23.90;51.20;;;;;;5109463;28;20023;-52
2020/12/08 11:06:45;;;;;;;15.85;4.25;;;23.90;51.10;;;;;;5111903;28;20031;-60
2020/12/08 11:09:13;;;;;;;14.82;4.63;;;23.90;51.10;;;;;;5111361;28;20028;-56
2020/12/08 11:11:41;;;;;;;16.52;4.80;;;23.90;51.20;;;;;;5071556;28;20118;-54
2020/12/08 11:14:08;;;;;;;11.15;3.72;;;23.80;51.70;;;;;;5110297;28;20047;-59
2020/12/08 11:16:36;;;;;;;12.45;3.97;;;23.80;50.90;;;;;;5110962;28;20039;-54
2020/12/08 11:19:03;;;;;;;13.70;4.00;;;23.80;50.80;;;;;;5091169;28;20475;-57
2020/12/08 11:21:31;;;;;;;16.40;4.50;;;23.70;51.20;;;;;;5107135;28;20358;-60
2020/12/08 11:23:59;;;;;;;11.73;3.58;;;23.80;51.10;;;;;;5109547;28;20496;-62
2020/12/08 11:26:31;;;;;;;15.27;4.60;;;23.70;51.00;;;;;;5109945;28;20032;-59
2020/12/08 11:28:59;;;;;;;;;;;23.80;51.00;;;;;;5110836;28;20028;-55
2020/12/08 11:31:26;;;;;;;12.52;3.25;;;23.80;51.00;;;;;;5107505;28;20474;-60
2020/12/08 11:33:54;;;;;;;14.32;4.55;;;23.70;50.90;;;;;;5110143;28;20024;-58
2020/12/08 11:36:21;;;;;;;12.80;4.15;;;23.70;50.90;;;;;;5110866;28;20063;-54
2020/12/08 11:38:49;;;;;;;10.65;3.72;;;23.70;50.80;;;;;;5108049;28;20024;-60
2020/12/08 11:41:16;;;;;;;12.30;3.88;;;23.70;50.80;;;;;;5106921;28;20122;-64
2020/12/08 11:43:44;;;;;;;17.65;4.72;;;23.70;50.80;;;;;;5109320;28;20047;-64
2020/12/08 11:46:15;;;;;;;12.00;3.40;;;23.70;50.80;;;;;;5110590;28;20031;-58
2020/12/08 11:48:43;;;;;;;9.23;3.78;;;23.60;50.90;;;;;;5110358;28;20400;-61
2020/12/08 11:51:10;;;;;;;11.02;3.55;;;23.70;50.80;;;;;;5106175;28;20038;-58
2020/12/08 11:53:38;;;;;;;10.45;4.03;;;23.70;50.60;;;;;;5109571;28;20075;-54
2020/12/08 11:56:06;;;;;;;11.07;3.35;;;23.60;50.70;;;;;;5108387;28;20047;-57
2020/12/08 11:58:33;;;;;;;14.52;4.38;;;23.60;50.90;;;;;;5109921;28;20462;-51
2020/12/08 12:01:00;;;;;;;12.43;3.92;;;23.60;50.70;;;;;;5106120;28;20043;-53
2020/12/08 12:03:28;;;;;;;11.55;3.92;;;23.60;50.90;;;;;;5109576;28;20027;-58
2020/12/08 12:05:55;;;;;;;8.70;3.17;;;23.60;50.90;;;;;;5110132;28;20084;-51
2020/12/08 12:08:23;;;;;;;12.90;3.38;;;23.60;50.80;;;;;;5109365;28;20027;-51
2020/12/08 12:10:50;;;;;;;13.48;3.47;;;23.60;50.90;;;;;;5106169;28;20465;-55
2020/12/08 12:13:18;;;;;;;10.48;3.28;;;23.60;50.90;;;;;;5108598;28;20020;-54
2020/12/08 12:15:45;;;;;;;9.65;3.40;;;23.60;51.10;;;;;;5109663;28;20103;-58
2020/12/08 12:18:13;;;;;;;10.95;3.42;;;23.60;51.10;;;;;;5109619;28;20048;-59
2020/12/08 12:20:40;;;;;;;12.13;3.20;;;23.60;51.00;;;;;;5109638;28;20479;-53
2020/12/08 12:23:07;;;;;;;9.23;2.90;;;23.60;50.90;;;;;;5106096;28;20035;-59
2020/12/08 12:25:35;;;;;;;11.73;3.03;;;23.60;50.90;;;;;;5109431;28;20592;-62
2020/12/08 12:28:02;;;;;;;10.52;2.95;;;23.60;50.90;;;;;;5109419;28;20096;-58
2020/12/08 12:30:30;;;;;;;10.70;2.70;;;23.50;50.80;;;;;;5109826;28;20106;-57
2020/12/08 12:32:57;;;;;;;9.88;3.28;;;23.50;50.80;;;;;;5105387;28;20104;-59
2020/12/08 12:35:27;;;;;;;9.10;2.80;;;23.50;50.80;;;;;;5075347;28;20050;-55
2020/12/08 12:37:55;;;;;;;9.00;2.72;;;23.50;50.90;;;;;;5109152;28;20019;-60
2020/12/08 12:40:22;;;;;;;7.97;2.85;;;23.50;50.80;;;;;;5108101;28;20019;-58
2020/12/08 12:42:50;;;;;;;14.68;3.25;;;23.50;50.70;;;;;;5105253;28;20019;-53
2020/12/08 12:45:17;;;;;;;9.75;2.92;;;23.50;50.70;;;;;;5109278;28;20032;-52
2020/12/08 12:47:45;;;;;;;11.18;2.47;;;23.50;50.80;;;;;;5109805;28;20462;-58
2020/12/08 12:50:12;;;;;;;8.13;2.55;;;23.50;50.80;;;;;;5109093;28;20035;-50
2020/12/08 12:52:40;;;;;;;8.57;2.60;;;23.50;50.80;;;;;;5105751;28;20068;-56